sensor_id;sensor_type;location;lat;lon;timestamp;P1;durP1;ratioP1;P2;durP2;ratioP2
16442;SDS011;8331;51.654;14.376;2024-02-16T00:01:44;10.17;;;9.17;;
16442;SDS011;8331;51.654;14.376;2024-02-16T00:04:10;9.57;;;8.67;;
16442;SDS011;8331;51.654;14.376;2024-02-16T00:06:37;9.70;;;8.77;;
16442;SDS011;8331;51.654;14.376;2024-02-16T00:09:04;9.97;;;8.07;;
16442;SDS011;8331;51.654;14.376;2024-02-16T00:11:30;10.20;;;9.35;;
16442;SDS011;8331;51.654;14.376;2024-02-16T00:13:58;9.03;;;8.30;;
16442;SDS011;8331;51.654;14.376;2024-02-16T00:16:24;8.80;;;7.90;;
16442;SDS011;8331;51.654;14.376;2024-02-16T00:18:51;7.97;;;7.27;;
16442;SDS011;8331;51.654;14.376;2024-02-16T00:21:17;8.00;;;7.07;;
16442;SDS011;8331;51.654;14.376;2024-02-16T00:23:44;7.80;;;7.07;;
16442;SDS011;8331;51.654;14.376;2024-02-16T00:26:11;7.47;;;6.87;;
16442;SDS011;8331;51.654;14.376;2024-02-16T00:28:38;7.47;;;6.87;;
16442;SDS011;8331;51.654;14.376;2024-02-16T00:31:05;7.30;;;6.70;;
16442;SDS011;8331;51.654;14.376;2024-02-16T00:33:32;8.17;;;7.47;;
16442;SDS011;8331;51.654;14.376;2024-02-16T00:36:00;8.73;;;7.90;;
16442;SDS011;8331;51.654;14.376;2024-02-16T00:38:27;9.03;;;8.13;;
16442;SDS011;8331;51.654;14.376;2024-02-16T00:40:53;8.97;;;8.13;;
16442;SDS011;8331;51.654;14.376;2024-02-16T00:43:20;8.60;;;7.77;;
16442;SDS011;8331;51.654;14.376;2024-02-16T00:45:47;10.30;;;9.30;;
16442;SDS011;8331;51.654;14.376;2024-02-16T00:48:15;10.40;;;9.40;;
16442;SDS011;8331;51.654;14.376;2024-02-16T00:50:42;9.83;;;8.93;;
16442;SDS011;8331;51.654;14.376;2024-02-16T00:53:10;10.60;;;9.60;;
16442;SDS011;8331;51.654;14.376;2024-02-16T00:55:36;10.80;;;9.83;;
16442;SDS011;8331;51.654;14.376;2024-02-16T00:58:04;10.60;;;9.57;;
16442;SDS011;8331;51.654;14.376;2024-02-16T01:00:31;10.53;;;9.40;;
16442;SDS011;8331;51.654;14.376;2024-02-16T01:02:58;10.33;;;9.33;;
16442;SDS011;8331;51.654;14.376;2024-02-16T01:05:24;10.83;;;8.57;;
16442;SDS011;8331;51.654;14.376;2024-02-16T01:07:51;9.00;;;8.20;;
16442;SDS011;8331;51.654;14.376;2024-02-16T01:10:18;9.27;;;8.37;;
16442;SDS011;8331;51.654;14.376;2024-02-16T01:12:45;8.53;;;7.67;;
16442;SDS011;8331;51.654;14.376;2024-02-16T01:15:12;9.17;;;8.33;;
16442;SDS011;8331;51.654;14.376;2024-02-16T01:17:38;9.97;;;9.07;;
16442;SDS011;8331;51.654;14.376;2024-02-16T01:20:06;9.83;;;8.87;;
16442;SDS011;8331;51.654;14.376;2024-02-16T01:22:38;10.30;;;8.77;;
16442;SDS011;8331;51.654;14.376;2024-02-16T01:25:04;9.83;;;8.83;;
16442;SDS011;8331;51.654;14.376;2024-02-16T01:27:31;8.30;;;7.60;;
16442;SDS011;8331;51.654;14.376;2024-02-16T01:29:59;9.83;;;8.90;;
16442;SDS011;8331;51.654;14.376;2024-02-16T01:32:26;9.60;;;8.70;;
16442;SDS011;8331;51.654;14.376;2024-02-16T01:34:53;9.63;;;8.67;;
16442;SDS011;8331;51.654;14.376;2024-02-16T01:37:20;9.27;;;8.47;;
16442;SDS011;8331;51.654;14.376;2024-02-16T01:39:46;8.57;;;7.80;;
16442;SDS011;8331;51.654;14.376;2024-02-16T01:42:13;7.57;;;6.97;;
16442;SDS011;8331;51.654;14.376;2024-02-16T01:44:40;8.40;;;7.63;;
16442;SDS011;8331;51.654;14.376;2024-02-16T01:47:07;9.07;;;8.27;;
16442;SDS011;8331;51.654;14.376;2024-02-16T01:49:33;9.50;;;8.60;;
16442;SDS011;8331;51.654;14.376;2024-02-16T01:52:00;9.90;;;8.90;;
16442;SDS011;8331;51.654;14.376;2024-02-16T01:54:27;8.83;;;8.00;;
16442;SDS011;8331;51.654;14.376;2024-02-16T01:56:54;10.80;;;9.70;;
16442;SDS011;8331;51.654;14.376;2024-02-16T01:59:21;9.87;;;8.93;;
16442;SDS011;8331;51.654;14.376;2024-02-16T02:01:49;9.87;;;8.87;;
16442;SDS011;8331;51.654;14.376;2024-02-16T02:04:15;9.83;;;8.77;;
16442;SDS011;8331;51.654;14.376;2024-02-16T02:06:42;9.37;;;8.57;;
16442;SDS011;8331;51.654;14.376;2024-02-16T02:09:09;10.63;;;9.60;;
16442;SDS011;8331;51.654;14.376;2024-02-16T02:11:36;11.17;;;10.03;;
16442;SDS011;8331;51.654;14.376;2024-02-16T02:14:04;10.47;;;9.57;;
16442;SDS011;8331;51.654;14.376;2024-02-16T02:16:30;13.80;;;8.97;;
16442;SDS011;8331;51.654;14.376;2024-02-16T02:19:10;9.63;;;8.37;;
16442;SDS011;8331;51.654;14.376;2024-02-16T02:21:37;10.90;;;9.90;;
16442;SDS011;8331;51.654;14.376;2024-02-16T02:24:03;13.70;;;10.60;;
16442;SDS011;8331;51.654;14.376;2024-02-16T02:26:31;10.70;;;9.63;;
16442;SDS011;8331;51.654;14.376;2024-02-16T02:28:59;11.60;;;10.40;;
16442;SDS011;8331;51.654;14.376;2024-02-16T02:31:25;11.80;;;10.13;;
16442;SDS011;8331;51.654;14.376;2024-02-16T02:33:52;11.17;;;10.07;;
16442;SDS011;8331;51.654;14.376;2024-02-16T02:36:19;10.33;;;9.37;;
16442;SDS011;8331;51.654;14.376;2024-02-16T02:38:45;10.60;;;9.60;;
16442;SDS011;8331;51.654;14.376;2024-02-16T02:41:12;11.37;;;9.87;;
16442;SDS011;8331;51.654;14.376;2024-02-16T02:43:42;11.63;;;10.53;;
16442;SDS011;8331;51.654;14.376;2024-02-16T02:46:09;10.93;;;9.93;;
16442;SDS011;8331;51.654;14.376;2024-02-16T02:48:35;11.90;;;9.57;;
16442;SDS011;8331;51.654;14.376;2024-02-16T02:51:02;10.53;;;9.30;;
16442;SDS011;8331;51.654;14.376;2024-02-16T02:53:30;9.83;;;8.83;;
16442;SDS011;8331;51.654;14.376;2024-02-16T02:55:56;12.57;;;11.37;;
16442;SDS011;8331;51.654;14.376;2024-02-16T02:58:23;11.03;;;10.03;;
16442;SDS011;8331;51.654;14.376;2024-02-16T03:00:50;10.73;;;9.73;;
16442;SDS011;8331;51.654;14.376;2024-02-16T03:03:16;11.77;;;10.43;;
16442;SDS011;8331;51.654;14.376;2024-02-16T03:05:43;10.47;;;9.40;;
16442;SDS011;8331;51.654;14.376;2024-02-16T03:08:10;10.10;;;9.20;;
16442;SDS011;8331;51.654;14.376;2024-02-16T03:10:37;11.00;;;10.00;;
16442;SDS011;8331;51.654;14.376;2024-02-16T03:13:05;11.87;;;10.67;;
16442;SDS011;8331;51.654;14.376;2024-02-16T03:15:35;10.13;;;9.13;;
16442;SDS011;8331;51.654;14.376;2024-02-16T03:18:02;10.13;;;9.13;;
16442;SDS011;8331;51.654;14.376;2024-02-16T03:20:29;9.57;;;8.67;;
16442;SDS011;8331;51.654;14.376;2024-02-16T03:22:56;8.87;;;8.07;;
16442;SDS011;8331;51.654;14.376;2024-02-16T03:25:23;11.13;;;9.80;;
16442;SDS011;8331;51.654;14.376;2024-02-16T03:27:50;10.13;;;9.20;;
16442;SDS011;8331;51.654;14.376;2024-02-16T03:30:17;9.00;;;8.17;;
16442;SDS011;8331;51.654;14.376;2024-02-16T03:32:47;9.53;;;8.60;;
16442;SDS011;8331;51.654;14.376;2024-02-16T03:35:14;9.40;;;8.60;;
16442;SDS011;8331;51.654;14.376;2024-02-16T03:37:40;10.30;;;7.93;;
16442;SDS011;8331;51.654;14.376;2024-02-16T03:40:08;9.70;;;8.80;;
16442;SDS011;8331;51.654;14.376;2024-02-16T03:42:36;11.07;;;9.17;;
16442;SDS011;8331;51.654;14.376;2024-02-16T03:45:03;10.10;;;9.10;;
16442;SDS011;8331;51.654;14.376;2024-02-16T03:47:29;9.60;;;8.70;;
16442;SDS011;8331;51.654;14.376;2024-02-16T03:49:56;10.20;;;9.23;;
16442;SDS011;8331;51.654;14.376;2024-02-16T03:52:23;11.37;;;10.27;;
16442;SDS011;8331;51.654;14.376;2024-02-16T03:54:50;12.87;;;10.20;;
16442;SDS011;8331;51.654;14.376;2024-02-16T03:57:18;11.53;;;10.37;;
16442;SDS011;8331;51.654;14.376;2024-02-16T03:59:44;11.67;;;10.57;;
16442;SDS011;8331;51.654;14.376;2024-02-16T04:02:12;10.37;;;9.37;;
16442;SDS011;8331;51.654;14.376;2024-02-16T04:04:39;11.27;;;10.07;;
16442;SDS011;8331;51.654;14.376;2024-02-16T04:07:06;11.33;;;10.13;;
16442;SDS011;8331;51.654;14.376;2024-02-16T04:09:33;10.70;;;9.27;;
16442;SDS011;8331;51.654;14.376;2024-02-16T04:12:01;10.00;;;9.10;;
16442;SDS011;8331;51.654;14.376;2024-02-16T04:14:27;10.30;;;9.30;;
16442;SDS011;8331;51.654;14.376;2024-02-16T04:16:54;11.70;;;9.70;;
16442;SDS011;8331;51.654;14.376;2024-02-16T04:19:25;11.47;;;10.03;;
16442;SDS011;8331;51.654;14.376;2024-02-16T04:21:52;12.83;;;10.07;;
16442;SDS011;8331;51.654;14.376;2024-02-16T04:24:18;12.10;;;10.63;;
16442;SDS011;8331;51.654;14.376;2024-02-16T04:26:45;12.60;;;10.27;;
16442;SDS011;8331;51.654;14.376;2024-02-16T04:29:12;12.10;;;10.90;;
16442;SDS011;8331;51.654;14.376;2024-02-16T04:31:39;11.63;;;10.43;;
16442;SDS011;8331;51.654;14.376;2024-02-16T04:34:06;12.30;;;10.97;;
16442;SDS011;8331;51.654;14.376;2024-02-16T04:36:33;11.93;;;10.83;;
16442;SDS011;8331;51.654;14.376;2024-02-16T04:39:00;12.67;;;11.33;;
16442;SDS011;8331;51.654;14.376;2024-02-16T04:41:27;12.60;;;10.17;;
16442;SDS011;8331;51.654;14.376;2024-02-16T04:43:54;11.63;;;10.13;;
16442;SDS011;8331;51.654;14.376;2024-02-16T04:46:21;12.17;;;10.33;;
16442;SDS011;8331;51.654;14.376;2024-02-16T04:48:47;13.63;;;10.70;;
16442;SDS011;8331;51.654;14.376;2024-02-16T04:51:14;11.20;;;10.03;;
16442;SDS011;8331;51.654;14.376;2024-02-16T04:53:41;12.00;;;10.50;;
16442;SDS011;8331;51.654;14.376;2024-02-16T04:56:08;11.73;;;10.53;;
16442;SDS011;8331;51.654;14.376;2024-02-16T04:58:34;14.40;;;11.43;;
16442;SDS011;8331;51.654;14.376;2024-02-16T05:01:01;12.07;;;10.73;;
16442;SDS011;8331;51.654;14.376;2024-02-16T05:03:28;11.67;;;10.47;;
16442;SDS011;8331;51.654;14.376;2024-02-16T05:05:55;15.00;;;11.77;;
16442;SDS011;8331;51.654;14.376;2024-02-16T05:08:22;11.90;;;10.77;;
16442;SDS011;8331;51.654;14.376;2024-02-16T05:10:49;12.37;;;11.17;;
16442;SDS011;8331;51.654;14.376;2024-02-16T05:13:16;11.77;;;10.60;;
16442;SDS011;8331;51.654;14.376;2024-02-16T05:15:44;12.63;;;10.50;;
16442;SDS011;8331;51.654;14.376;2024-02-16T05:18:11;12.83;;;10.77;;
16442;SDS011;8331;51.654;14.376;2024-02-16T05:20:40;13.03;;;11.10;;
16442;SDS011;8331;51.654;14.376;2024-02-16T05:23:06;12.97;;;10.63;;
16442;SDS011;8331;51.654;14.376;2024-02-16T05:25:33;12.20;;;11.00;;
16442;SDS011;8331;51.654;14.376;2024-02-16T05:27:59;13.50;;;11.33;;
16442;SDS011;8331;51.654;14.376;2024-02-16T05:30:28;12.57;;;11.33;;
16442;SDS011;8331;51.654;14.376;2024-02-16T05:32:54;14.23;;;11.93;;
16442;SDS011;8331;51.654;14.376;2024-02-16T05:35:25;14.50;;;11.90;;
16442;SDS011;8331;51.654;14.376;2024-02-16T05:37:55;13.40;;;11.27;;
16442;SDS011;8331;51.654;14.376;2024-02-16T05:40:21;13.80;;;11.63;;
16442;SDS011;8331;51.654;14.376;2024-02-16T05:42:51;11.60;;;10.30;;
16442;SDS011;8331;51.654;14.376;2024-02-16T05:45:18;11.77;;;10.57;;
16442;SDS011;8331;51.654;14.376;2024-02-16T05:47:45;10.57;;;9.57;;
16442;SDS011;8331;51.654;14.376;2024-02-16T05:50:12;11.47;;;10.30;;
16442;SDS011;8331;51.654;14.376;2024-02-16T05:52:39;11.43;;;10.33;;
16442;SDS011;8331;51.654;14.376;2024-02-16T05:55:07;12.07;;;10.50;;
16442;SDS011;8331;51.654;14.376;2024-02-16T05:57:34;12.53;;;11.33;;
16442;SDS011;8331;51.654;14.376;2024-02-16T06:00:04;12.90;;;11.70;;
16442;SDS011;8331;51.654;14.376;2024-02-16T06:02:32;15.03;;;12.13;;
16442;SDS011;8331;51.654;14.376;2024-02-16T06:04:59;13.33;;;12.03;;
16442;SDS011;8331;51.654;14.376;2024-02-16T06:07:26;14.63;;;12.13;;
16442;SDS011;8331;51.654;14.376;2024-02-16T06:09:54;15.07;;;12.87;;
16442;SDS011;8331;51.654;14.376;2024-02-16T06:12:21;17.30;;;13.27;;
16442;SDS011;8331;51.654;14.376;2024-02-16T06:14:47;14.03;;;12.60;;
16442;SDS011;8331;51.654;14.376;2024-02-16T06:17:17;16.87;;;13.97;;
16442;SDS011;8331;51.654;14.376;2024-02-16T06:19:43;15.60;;;13.50;;
16442;SDS011;8331;51.654;14.376;2024-02-16T06:22:10;19.13;;;15.17;;
16442;SDS011;8331;51.654;14.376;2024-02-16T06:24:37;17.33;;;15.33;;
16442;SDS011;8331;51.654;14.376;2024-02-16T06:27:04;16.67;;;13.90;;
16442;SDS011;8331;51.654;14.376;2024-02-16T06:29:31;17.77;;;14.33;;
16442;SDS011;8331;51.654;14.376;2024-02-16T06:31:57;16.77;;;14.90;;
16442;SDS011;8331;51.654;14.376;2024-02-16T06:34:24;16.83;;;13.77;;
16442;SDS011;8331;51.654;14.376;2024-02-16T06:36:50;14.23;;;12.63;;
16442;SDS011;8331;51.654;14.376;2024-02-16T06:39:17;13.73;;;12.33;;
16442;SDS011;8331;51.654;14.376;2024-02-16T06:41:45;13.80;;;12.20;;
16442;SDS011;8331;51.654;14.376;2024-02-16T06:44:13;13.50;;;12.20;;
16442;SDS011;8331;51.654;14.376;2024-02-16T06:46:43;14.00;;;12.57;;
16442;SDS011;8331;51.654;14.376;2024-02-16T06:49:10;13.30;;;11.93;;
16442;SDS011;8331;51.654;14.376;2024-02-16T06:51:37;12.60;;;11.30;;
16442;SDS011;8331;51.654;14.376;2024-02-16T06:54:04;12.40;;;11.17;;
16442;SDS011;8331;51.654;14.376;2024-02-16T06:56:31;13.73;;;11.83;;
16442;SDS011;8331;51.654;14.376;2024-02-16T06:58:57;13.38;;;11.98;;
16442;SDS011;8331;51.654;14.376;2024-02-16T07:01:24;12.90;;;11.60;;
16442;SDS011;8331;51.654;14.376;2024-02-16T07:03:54;12.13;;;10.97;;
16442;SDS011;8331;51.654;14.376;2024-02-16T07:06:21;12.40;;;11.13;;
16442;SDS011;8331;51.654;14.376;2024-02-16T07:08:47;11.97;;;10.70;;
16442;SDS011;8331;51.654;14.376;2024-02-16T07:11:14;11.33;;;10.23;;
16442;SDS011;8331;51.654;14.376;2024-02-16T07:13:41;12.30;;;11.03;;
16442;SDS011;8331;51.654;14.376;2024-02-16T07:16:09;12.70;;;10.67;;
16442;SDS011;8331;51.654;14.376;2024-02-16T07:18:35;11.57;;;10.47;;
16442;SDS011;8331;51.654;14.376;2024-02-16T07:21:03;11.07;;;10.00;;
16442;SDS011;8331;51.654;14.376;2024-02-16T07:23:29;11.30;;;10.27;;
16442;SDS011;8331;51.654;14.376;2024-02-16T07:25:56;10.77;;;9.73;;
16442;SDS011;8331;51.654;14.376;2024-02-16T07:28:24;14.17;;;10.37;;
16442;SDS011;8331;51.654;14.376;2024-02-16T07:30:51;12.23;;;10.57;;
16442;SDS011;8331;51.654;14.376;2024-02-16T07:33:20;12.20;;;11.00;;
16442;SDS011;8331;51.654;14.376;2024-02-16T07:35:47;12.10;;;10.90;;
16442;SDS011;8331;51.654;14.376;2024-02-16T07:38:13;12.30;;;11.20;;
16442;SDS011;8331;51.654;14.376;2024-02-16T07:40:40;14.07;;;11.73;;
16442;SDS011;8331;51.654;14.376;2024-02-16T07:43:07;13.73;;;12.27;;
16442;SDS011;8331;51.654;14.376;2024-02-16T07:45:34;14.43;;;12.93;;
16442;SDS011;8331;51.654;14.376;2024-02-16T07:48:01;18.17;;;15.33;;
16442;SDS011;8331;51.654;14.376;2024-02-16T07:50:32;15.47;;;13.50;;
16442;SDS011;8331;51.654;14.376;2024-02-16T07:52:58;21.70;;;19.20;;
16442;SDS011;8331;51.654;14.376;2024-02-16T07:55:25;19.07;;;17.03;;
16442;SDS011;8331;51.654;14.376;2024-02-16T07:57:52;22.63;;;20.30;;
16442;SDS011;8331;51.654;14.376;2024-02-16T08:00:18;21.53;;;19.07;;
16442;SDS011;8331;51.654;14.376;2024-02-16T08:02:45;31.40;;;28.10;;
16442;SDS011;8331;51.654;14.376;2024-02-16T08:05:12;33.37;;;28.93;;
16442;SDS011;8331;51.654;14.376;2024-02-16T08:07:40;17.43;;;14.07;;
16442;SDS011;8331;51.654;14.376;2024-02-16T08:10:10;21.83;;;19.53;;
16442;SDS011;8331;51.654;14.376;2024-02-16T08:12:37;14.73;;;13.33;;
16442;SDS011;8331;51.654;14.376;2024-02-16T08:15:05;12.47;;;11.17;;
16442;SDS011;8331;51.654;14.376;2024-02-16T08:17:34;13.20;;;11.80;;
16442;SDS011;8331;51.654;14.376;2024-02-16T08:20:01;13.77;;;11.40;;
16442;SDS011;8331;51.654;14.376;2024-02-16T08:22:28;10.17;;;9.30;;
16442;SDS011;8331;51.654;14.376;2024-02-16T08:24:55;12.57;;;11.27;;
16442;SDS011;8331;51.654;14.376;2024-02-16T08:27:21;10.93;;;9.93;;
16442;SDS011;8331;51.654;14.376;2024-02-16T08:29:48;12.87;;;11.63;;
16442;SDS011;8331;51.654;14.376;2024-02-16T08:32:15;10.53;;;9.53;;
16442;SDS011;8331;51.654;14.376;2024-02-16T08:34:43;10.97;;;9.87;;
16442;SDS011;8331;51.654;14.376;2024-02-16T08:37:10;10.10;;;9.20;;
16442;SDS011;8331;51.654;14.376;2024-02-16T08:39:37;9.97;;;9.07;;
16442;SDS011;8331;51.654;14.376;2024-02-16T08:42:04;10.70;;;9.70;;
16442;SDS011;8331;51.654;14.376;2024-02-16T08:44:31;11.30;;;9.93;;
16442;SDS011;8331;51.654;14.376;2024-02-16T08:46:58;10.40;;;9.40;;
16442;SDS011;8331;51.654;14.376;2024-02-16T08:49:24;9.97;;;8.80;;
16442;SDS011;8331;51.654;14.376;2024-02-16T08:51:51;10.67;;;9.67;;
16442;SDS011;8331;51.654;14.376;2024-02-16T08:54:18;9.87;;;9.03;;
16442;SDS011;8331;51.654;14.376;2024-02-16T08:56:46;10.00;;;9.00;;
16442;SDS011;8331;51.654;14.376;2024-02-16T08:59:12;9.17;;;8.27;;
16442;SDS011;8331;51.654;14.376;2024-02-16T09:01:39;9.23;;;8.33;;
16442;SDS011;8331;51.654;14.376;2024-02-16T09:04:06;8.37;;;7.67;;
16442;SDS011;8331;51.654;14.376;2024-02-16T09:06:33;9.43;;;8.53;;
16442;SDS011;8331;51.654;14.376;2024-02-16T09:09:01;9.07;;;8.17;;
16442;SDS011;8331;51.654;14.376;2024-02-16T09:11:28;8.17;;;7.47;;
16442;SDS011;8331;51.654;14.376;2024-02-16T09:13:55;9.40;;;8.60;;
16442;SDS011;8331;51.654;14.376;2024-02-16T09:16:22;8.90;;;8.00;;
16442;SDS011;8331;51.654;14.376;2024-02-16T09:18:51;8.50;;;7.73;;
16442;SDS011;8331;51.654;14.376;2024-02-16T09:21:18;10.90;;;7.97;;
16442;SDS011;8331;51.654;14.376;2024-02-16T09:23:45;7.47;;;6.87;;
16442;SDS011;8331;51.654;14.376;2024-02-16T09:26:11;7.63;;;7.03;;
16442;SDS011;8331;51.654;14.376;2024-02-16T09:28:39;9.53;;;8.47;;
16442;SDS011;8331;51.654;14.376;2024-02-16T09:31:07;8.30;;;7.50;;
16442;SDS011;8331;51.654;14.376;2024-02-16T09:33:36;8.83;;;7.97;;
16442;SDS011;8331;51.654;14.376;2024-02-16T09:36:05;8.90;;;8.13;;
16442;SDS011;8331;51.654;14.376;2024-02-16T09:38:32;8.20;;;7.00;;
16442;SDS011;8331;51.654;14.376;2024-02-16T09:40:58;16.37;;;12.40;;
16442;SDS011;8331;51.654;14.376;2024-02-16T09:43:26;11.67;;;8.90;;
16442;SDS011;8331;51.654;14.376;2024-02-16T09:45:57;8.67;;;7.77;;
16442;SDS011;8331;51.654;14.376;2024-02-16T09:48:25;7.07;;;6.47;;
16442;SDS011;8331;51.654;14.376;2024-02-16T09:50:54;9.40;;;8.43;;
16442;SDS011;8331;51.654;14.376;2024-02-16T09:53:21;10.20;;;9.10;;
16442;SDS011;8331;51.654;14.376;2024-02-16T09:55:50;8.87;;;8.03;;
16442;SDS011;8331;51.654;14.376;2024-02-16T09:58:17;8.67;;;7.77;;
16442;SDS011;8331;51.654;14.376;2024-02-16T10:00:51;12.37;;;7.90;;
16442;SDS011;8331;51.654;14.376;2024-02-16T10:03:28;11.23;;;8.60;;
16442;SDS011;8331;51.654;14.376;2024-02-16T10:06:10;15.93;;;9.53;;
16442;SDS011;8331;51.654;14.376;2024-02-16T10:11:15;9.27;;;7.60;;
16442;SDS011;8331;51.654;14.376;2024-02-16T10:13:42;9.20;;;7.30;;
16442;SDS011;8331;51.654;14.376;2024-02-16T10:16:09;6.90;;;6.40;;
16442;SDS011;8331;51.654;14.376;2024-02-16T10:18:38;7.23;;;6.70;;
16442;SDS011;8331;51.654;14.376;2024-02-16T10:21:05;6.93;;;6.33;;
16442;SDS011;8331;51.654;14.376;2024-02-16T10:23:32;7.00;;;6.40;;
16442;SDS011;8331;51.654;14.376;2024-02-16T10:26:01;6.97;;;6.33;;
16442;SDS011;8331;51.654;14.376;2024-02-16T10:28:29;6.97;;;6.38;;
16442;SDS011;8331;51.654;14.376;2024-02-16T10:30:58;6.57;;;5.90;;
16442;SDS011;8331;51.654;14.376;2024-02-16T10:33:28;6.80;;;6.20;;
16442;SDS011;8331;51.654;14.376;2024-02-16T10:35:56;6.63;;;5.90;;
16442;SDS011;8331;51.654;14.376;2024-02-16T10:38:24;6.53;;;5.93;;
16442;SDS011;8331;51.654;14.376;2024-02-16T10:40:51;7.17;;;6.57;;
16442;SDS011;8331;51.654;14.376;2024-02-16T10:43:19;7.03;;;5.90;;
16442;SDS011;8331;51.654;14.376;2024-02-16T10:45:47;6.53;;;5.97;;
16442;SDS011;8331;51.654;14.376;2024-02-16T10:48:18;6.43;;;5.70;;
16442;SDS011;8331;51.654;14.376;2024-02-16T10:50:45;6.40;;;5.80;;
16442;SDS011;8331;51.654;14.376;2024-02-16T10:53:26;6.70;;;6.10;;
16442;SDS011;8331;51.654;14.376;2024-02-16T10:55:53;7.33;;;6.67;;
16442;SDS011;8331;51.654;14.376;2024-02-16T10:58:19;6.10;;;5.50;;
16442;SDS011;8331;51.654;14.376;2024-02-16T11:00:50;6.00;;;5.57;;
16442;SDS011;8331;51.654;14.376;2024-02-16T11:03:18;6.70;;;6.07;;
16442;SDS011;8331;51.654;14.376;2024-02-16T11:05:49;6.60;;;5.90;;
16442;SDS011;8331;51.654;14.376;2024-02-16T11:08:17;6.53;;;5.90;;
16442;SDS011;8331;51.654;14.376;2024-02-16T11:10:57;5.80;;;5.30;;
16442;SDS011;8331;51.654;14.376;2024-02-16T11:13:24;6.27;;;5.63;;
16442;SDS011;8331;51.654;14.376;2024-02-16T11:16:00;5.80;;;5.30;;
16442;SDS011;8331;51.654;14.376;2024-02-16T11:18:30;5.60;;;5.10;;
16442;SDS011;8331;51.654;14.376;2024-02-16T11:21:01;5.63;;;5.20;;
16442;SDS011;8331;51.654;14.376;2024-02-16T11:23:29;5.17;;;4.77;;
16442;SDS011;8331;51.654;14.376;2024-02-16T11:26:05;6.10;;;5.60;;
16442;SDS011;8331;51.654;14.376;2024-02-16T11:28:37;5.70;;;5.20;;
16442;SDS011;8331;51.654;14.376;2024-02-16T11:31:05;5.40;;;4.90;;
16442;SDS011;8331;51.654;14.376;2024-02-16T11:33:32;5.30;;;4.90;;
16442;SDS011;8331;51.654;14.376;2024-02-16T11:36:00;5.20;;;4.80;;
16442;SDS011;8331;51.654;14.376;2024-02-16T11:38:27;5.90;;;5.40;;
16442;SDS011;8331;51.654;14.376;2024-02-16T11:43:21;5.33;;;4.83;;
16442;SDS011;8331;51.654;14.376;2024-02-16T11:45:48;6.20;;;4.80;;
16442;SDS011;8331;51.654;14.376;2024-02-16T11:48:25;5.43;;;5.03;;
16442;SDS011;8331;51.654;14.376;2024-02-16T11:51:02;5.67;;;5.27;;
16442;SDS011;8331;51.654;14.376;2024-02-16T11:53:29;5.20;;;4.80;;
16442;SDS011;8331;51.654;14.376;2024-02-16T11:55:56;4.93;;;4.63;;
16442;SDS011;8331;51.654;14.376;2024-02-16T11:58:23;5.63;;;5.23;;
16442;SDS011;8331;51.654;14.376;2024-02-16T12:00:50;5.37;;;4.87;;
16442;SDS011;8331;51.654;14.376;2024-02-16T12:03:26;5.67;;;5.17;;
16442;SDS011;8331;51.654;14.376;2024-02-16T12:05:58;5.10;;;4.70;;
16442;SDS011;8331;51.654;14.376;2024-02-16T12:08:34;5.50;;;5.10;;
16442;SDS011;8331;51.654;14.376;2024-02-16T12:11:01;5.40;;;4.80;;
16442;SDS011;8331;51.654;14.376;2024-02-16T12:13:28;5.33;;;4.93;;
16442;SDS011;8331;51.654;14.376;2024-02-16T12:15:55;5.20;;;4.70;;
16442;SDS011;8331;51.654;14.376;2024-02-16T12:18:23;4.70;;;4.33;;
16442;SDS011;8331;51.654;14.376;2024-02-16T12:21:03;5.17;;;4.70;;
16442;SDS011;8331;51.654;14.376;2024-02-16T12:23:31;5.57;;;5.10;;
16442;SDS011;8331;51.654;14.376;2024-02-16T12:25:58;4.97;;;4.60;;
16442;SDS011;8331;51.654;14.376;2024-02-16T12:28:26;7.03;;;5.40;;
16442;SDS011;8331;51.654;14.376;2024-02-16T12:30:54;5.20;;;4.70;;
16442;SDS011;8331;51.654;14.376;2024-02-16T12:33:21;5.43;;;4.90;;
16442;SDS011;8331;51.654;14.376;2024-02-16T12:35:49;5.03;;;4.73;;
16442;SDS011;8331;51.654;14.376;2024-02-16T12:38:15;5.60;;;4.63;;
16442;SDS011;8331;51.654;14.376;2024-02-16T12:40:46;4.77;;;4.37;;
16442;SDS011;8331;51.654;14.376;2024-02-16T12:43:13;5.17;;;4.70;;
16442;SDS011;8331;51.654;14.376;2024-02-16T12:45:40;5.60;;;5.07;;
16442;SDS011;8331;51.654;14.376;2024-02-16T12:48:07;5.07;;;4.67;;
16442;SDS011;8331;51.654;14.376;2024-02-16T12:50:36;4.63;;;4.23;;
16442;SDS011;8331;51.654;14.376;2024-02-16T12:53:08;5.00;;;4.60;;
16442;SDS011;8331;51.654;14.376;2024-02-16T12:55:35;5.50;;;4.97;;
16442;SDS011;8331;51.654;14.376;2024-02-16T12:58:02;4.93;;;4.43;;
16442;SDS011;8331;51.654;14.376;2024-02-16T13:00:29;4.90;;;4.50;;
16442;SDS011;8331;51.654;14.376;2024-02-16T13:02:56;5.10;;;4.60;;
16442;SDS011;8331;51.654;14.376;2024-02-16T13:05:23;5.47;;;4.60;;
16442;SDS011;8331;51.654;14.376;2024-02-16T13:07:49;5.07;;;4.60;;
16442;SDS011;8331;51.654;14.376;2024-02-16T13:10:16;5.10;;;4.70;;
16442;SDS011;8331;51.654;14.376;2024-02-16T13:12:43;5.13;;;4.63;;
16442;SDS011;8331;51.654;14.376;2024-02-16T13:15:10;4.83;;;4.43;;
16442;SDS011;8331;51.654;14.376;2024-02-16T13:17:53;5.10;;;4.70;;
16442;SDS011;8331;51.654;14.376;2024-02-16T13:20:21;5.57;;;5.07;;
16442;SDS011;8331;51.654;14.376;2024-02-16T13:22:47;5.00;;;4.50;;
16442;SDS011;8331;51.654;14.376;2024-02-16T13:25:14;5.40;;;4.90;;
16442;SDS011;8331;51.654;14.376;2024-02-16T13:27:42;5.37;;;4.83;;
16442;SDS011;8331;51.654;14.376;2024-02-16T13:30:09;7.43;;;4.70;;
16442;SDS011;8331;51.654;14.376;2024-02-16T13:32:36;4.80;;;4.50;;
16442;SDS011;8331;51.654;14.376;2024-02-16T13:35:06;5.33;;;4.87;;
16442;SDS011;8331;51.654;14.376;2024-02-16T13:37:33;5.53;;;5.03;;
16442;SDS011;8331;51.654;14.376;2024-02-16T13:40:00;5.00;;;4.60;;
16442;SDS011;8331;51.654;14.376;2024-02-16T13:42:27;5.10;;;4.60;;
16442;SDS011;8331;51.654;14.376;2024-02-16T13:44:55;5.50;;;5.00;;
16442;SDS011;8331;51.654;14.376;2024-02-16T13:47:23;5.00;;;4.57;;
16442;SDS011;8331;51.654;14.376;2024-02-16T13:49:50;6.90;;;6.30;;
16442;SDS011;8331;51.654;14.376;2024-02-16T13:52:18;5.63;;;5.13;;
16442;SDS011;8331;51.654;14.376;2024-02-16T13:54:45;5.20;;;4.80;;
16442;SDS011;8331;51.654;14.376;2024-02-16T13:57:13;5.30;;;4.90;;
16442;SDS011;8331;51.654;14.376;2024-02-16T13:59:40;6.10;;;5.07;;
16442;SDS011;8331;51.654;14.376;2024-02-16T14:02:08;5.43;;;5.03;;
16442;SDS011;8331;51.654;14.376;2024-02-16T14:04:35;6.50;;;5.90;;
16442;SDS011;8331;51.654;14.376;2024-02-16T14:07:05;6.20;;;5.70;;
16442;SDS011;8331;51.654;14.376;2024-02-16T14:09:32;7.10;;;6.50;;
16442;SDS011;8331;51.654;14.376;2024-02-16T14:12:00;6.63;;;4.93;;
16442;SDS011;8331;51.654;14.376;2024-02-16T14:14:26;6.27;;;5.60;;
16442;SDS011;8331;51.654;14.376;2024-02-16T14:17:03;10.03;;;9.13;;
16442;SDS011;8331;51.654;14.376;2024-02-16T14:19:30;20.70;;;18.57;;
16442;SDS011;8331;51.654;14.376;2024-02-16T14:21:58;20.00;;;17.83;;
16442;SDS011;8331;51.654;14.376;2024-02-16T14:24:24;7.93;;;7.23;;
16442;SDS011;8331;51.654;14.376;2024-02-16T14:26:51;6.57;;;6.07;;
16442;SDS011;8331;51.654;14.376;2024-02-16T14:29:20;8.13;;;7.33;;
16442;SDS011;8331;51.654;14.376;2024-02-16T14:31:47;9.50;;;8.70;;
16442;SDS011;8331;51.654;14.376;2024-02-16T14:34:15;9.30;;;8.40;;
16442;SDS011;8331;51.654;14.376;2024-02-16T14:36:43;6.80;;;6.20;;
16442;SDS011;8331;51.654;14.376;2024-02-16T14:39:10;9.00;;;8.20;;
16442;SDS011;8331;51.654;14.376;2024-02-16T14:41:38;6.93;;;6.33;;
16442;SDS011;8331;51.654;14.376;2024-02-16T14:44:05;6.53;;;6.03;;